sensor_id;sensor_type;location;lat;lon;timestamp;P1;durP1;ratioP1;P2;durP2;ratioP2
64887;SDS011;51386;53.082;8.816;2022-12-24T00:01:02;7.83;;;6.10;;
64887;SDS011;51386;53.082;8.816;2022-12-24T00:03:31;6.97;;;6.27;;
64887;SDS011;51386;53.082;8.816;2022-12-24T00:06:02;6.00;;;4.93;;
64887;SDS011;51386;53.082;8.816;2022-12-24T00:08:30;6.33;;;5.73;;
64887;SDS011;51386;53.082;8.816;2022-12-24T00:10:58;7.67;;;5.87;;
64887;SDS011;51386;53.082;8.816;2022-12-24T00:13:25;6.27;;;5.33;;
64887;SDS011;51386;53.082;8.816;2022-12-24T00:15:52;5.70;;;5.20;;
64887;SDS011;51386;53.082;8.816;2022-12-24T00:18:19;6.10;;;5.50;;
64887;SDS011;51386;53.082;8.816;2022-12-24T00:20:46;5.50;;;4.90;;
64887;SDS011;51386;53.082;8.816;2022-12-24T00:23:14;7.70;;;5.60;;
64887;SDS011;51386;53.082;8.816;2022-12-24T00:25:42;8.03;;;5.50;;
64887;SDS011;51386;53.082;8.816;2022-12-24T00:28:12;6.77;;;5.70;;
64887;SDS011;51386;53.082;8.816;2022-12-24T00:30:41;6.57;;;5.67;;
64887;SDS011;51386;53.082;8.816;2022-12-24T00:33:08;5.40;;;4.87;;
64887;SDS011;51386;53.082;8.816;2022-12-24T00:35:36;5.63;;;4.83;;
64887;SDS011;51386;53.082;8.816;2022-12-24T00:38:05;5.83;;;5.23;;
64887;SDS011;51386;53.082;8.816;2022-12-24T00:40:33;6.27;;;5.63;;
64887;SDS011;51386;53.082;8.816;2022-12-24T00:43:01;6.30;;;5.20;;
64887;SDS011;51386;53.082;8.816;2022-12-24T00:45:29;8.63;;;7.73;;
64887;SDS011;51386;53.082;8.816;2022-12-24T00:47:56;7.00;;;5.67;;
64887;SDS011;51386;53.082;8.816;2022-12-24T00:50:23;5.93;;;4.70;;
64887;SDS011;51386;53.082;8.816;2022-12-24T00:52:50;5.77;;;5.00;;
64887;SDS011;51386;53.082;8.816;2022-12-24T00:55:18;5.23;;;4.73;;
64887;SDS011;51386;53.082;8.816;2022-12-24T00:57:45;5.73;;;4.87;;
64887;SDS011;51386;53.082;8.816;2022-12-24T01:00:12;6.73;;;5.77;;
64887;SDS011;51386;53.082;8.816;2022-12-24T01:02:43;6.47;;;5.70;;
64887;SDS011;51386;53.082;8.816;2022-12-24T01:05:11;5.77;;;5.20;;
64887;SDS011;51386;53.082;8.816;2022-12-24T01:07:39;6.10;;;5.33;;
64887;SDS011;51386;53.082;8.816;2022-12-24T01:10:10;6.03;;;5.33;;
64887;SDS011;51386;53.082;8.816;2022-12-24T01:12:39;6.07;;;5.17;;
64887;SDS011;51386;53.082;8.816;2022-12-24T01:15:07;6.00;;;5.00;;
64887;SDS011;51386;53.082;8.816;2022-12-24T01:17:37;5.77;;;4.63;;
64887;SDS011;51386;53.082;8.816;2022-12-24T01:20:07;7.33;;;5.77;;
64887;SDS011;51386;53.082;8.816;2022-12-24T01:22:39;5.17;;;4.67;;
64887;SDS011;51386;53.082;8.816;2022-12-24T01:25:07;5.07;;;4.57;;
64887;SDS011;51386;53.082;8.816;2022-12-24T01:27:35;5.23;;;4.73;;
64887;SDS011;51386;53.082;8.816;2022-12-24T01:30:02;6.10;;;5.20;;
64887;SDS011;51386;53.082;8.816;2022-12-24T01:32:30;5.87;;;4.70;;
64887;SDS011;51386;53.082;8.816;2022-12-24T01:34:57;5.30;;;4.73;;
64887;SDS011;51386;53.082;8.816;2022-12-24T01:37:26;5.80;;;4.90;;
64887;SDS011;51386;53.082;8.816;2022-12-24T01:39:53;5.40;;;4.80;;
64887;SDS011;51386;53.082;8.816;2022-12-24T01:42:41;4.33;;;3.93;;
64887;SDS011;51386;53.082;8.816;2022-12-24T01:48:23;6.30;;;5.70;;
64887;SDS011;51386;53.082;8.816;2022-12-24T01:51:01;4.77;;;4.37;;
64887;SDS011;51386;53.082;8.816;2022-12-24T01:53:36;4.60;;;4.20;;
64887;SDS011;51386;53.082;8.816;2022-12-24T01:56:07;6.63;;;4.90;;
64887;SDS011;51386;53.082;8.816;2022-12-24T01:58:36;6.03;;;5.03;;
64887;SDS011;51386;53.082;8.816;2022-12-24T02:01:08;4.80;;;4.23;;
64887;SDS011;51386;53.082;8.816;2022-12-24T02:03:35;4.63;;;4.23;;
64887;SDS011;51386;53.082;8.816;2022-12-24T02:06:03;4.80;;;4.40;;
64887;SDS011;51386;53.082;8.816;2022-12-24T02:08:31;5.80;;;5.03;;
64887;SDS011;51386;53.082;8.816;2022-12-24T02:11:10;5.77;;;5.17;;
64887;SDS011;51386;53.082;8.816;2022-12-24T02:13:40;5.10;;;4.53;;
64887;SDS011;51386;53.082;8.816;2022-12-24T02:16:13;5.27;;;4.73;;
64887;SDS011;51386;53.082;8.816;2022-12-24T02:18:59;4.93;;;4.30;;
64887;SDS011;51386;53.082;8.816;2022-12-24T02:21:47;5.07;;;4.57;;
64887;SDS011;51386;53.082;8.816;2022-12-24T02:27:40;4.63;;;4.20;;
64887;SDS011;51386;53.082;8.816;2022-12-24T02:30:21;4.83;;;4.30;;
64887;SDS011;51386;53.082;8.816;2022-12-24T02:32:55;5.23;;;4.73;;
64887;SDS011;51386;53.082;8.816;2022-12-24T02:35:47;5.17;;;4.53;;
64887;SDS011;51386;53.082;8.816;2022-12-24T02:38:22;5.13;;;4.63;;
64887;SDS011;51386;53.082;8.816;2022-12-24T02:40:57;5.30;;;4.77;;
64887;SDS011;51386;53.082;8.816;2022-12-24T02:43:31;4.53;;;4.13;;
64887;SDS011;51386;53.082;8.816;2022-12-24T02:46:06;4.77;;;4.37;;
64887;SDS011;51386;53.082;8.816;2022-12-24T02:48:39;5.10;;;4.47;;
64887;SDS011;51386;53.082;8.816;2022-12-24T02:51:10;5.13;;;4.63;;
64887;SDS011;51386;53.082;8.816;2022-12-24T02:53:37;4.17;;;3.80;;
64887;SDS011;51386;53.082;8.816;2022-12-24T02:56:14;5.63;;;4.90;;
64887;SDS011;51386;53.082;8.816;2022-12-24T02:59:05;4.40;;;4.00;;
64887;SDS011;51386;53.082;8.816;2022-12-24T03:01:57;4.50;;;4.10;;
64887;SDS011;51386;53.082;8.816;2022-12-24T03:04:39;4.40;;;4.00;;
64887;SDS011;51386;53.082;8.816;2022-12-24T03:07:21;4.40;;;4.00;;
64887;SDS011;51386;53.082;8.816;2022-12-24T03:09:55;3.90;;;3.60;;
64887;SDS011;51386;53.082;8.816;2022-12-24T03:12:38;3.73;;;3.43;;
64887;SDS011;51386;53.082;8.816;2022-12-24T03:15:11;3.80;;;3.47;;
64887;SDS011;51386;53.082;8.816;2022-12-24T03:17:44;5.57;;;3.57;;
64887;SDS011;51386;53.082;8.816;2022-12-24T03:20:16;3.97;;;3.57;;
64887;SDS011;51386;53.082;8.816;2022-12-24T03:22:50;4.13;;;3.70;;
64887;SDS011;51386;53.082;8.816;2022-12-24T03:25:18;3.17;;;2.87;;
64887;SDS011;51386;53.082;8.816;2022-12-24T03:27:49;3.63;;;3.30;;
64887;SDS011;51386;53.082;8.816;2022-12-24T03:30:17;4.33;;;3.93;;
64887;SDS011;51386;53.082;8.816;2022-12-24T03:32:46;3.70;;;3.40;;
64887;SDS011;51386;53.082;8.816;2022-12-24T03:35:13;3.77;;;3.37;;
64887;SDS011;51386;53.082;8.816;2022-12-24T03:37:40;3.47;;;3.17;;
64887;SDS011;51386;53.082;8.816;2022-12-24T03:40:08;3.90;;;3.30;;
64887;SDS011;51386;53.082;8.816;2022-12-24T03:42:35;3.60;;;3.30;;
64887;SDS011;51386;53.082;8.816;2022-12-24T03:45:03;3.43;;;3.13;;
64887;SDS011;51386;53.082;8.816;2022-12-24T03:47:31;2.67;;;2.47;;
64887;SDS011;51386;53.082;8.816;2022-12-24T03:49:59;3.40;;;3.10;;
64887;SDS011;51386;53.082;8.816;2022-12-24T03:52:26;3.43;;;3.13;;
64887;SDS011;51386;53.082;8.816;2022-12-24T03:54:53;3.30;;;3.00;;
64887;SDS011;51386;53.082;8.816;2022-12-24T03:57:20;3.40;;;3.10;;
64887;SDS011;51386;53.082;8.816;2022-12-24T03:59:47;3.63;;;3.33;;
64887;SDS011;51386;53.082;8.816;2022-12-24T04:02:14;4.40;;;4.00;;
64887;SDS011;51386;53.082;8.816;2022-12-24T04:04:42;4.70;;;4.20;;
64887;SDS011;51386;53.082;8.816;2022-12-24T04:07:10;4.40;;;4.00;;
64887;SDS011;51386;53.082;8.816;2022-12-24T04:09:37;3.70;;;3.33;;
64887;SDS011;51386;53.082;8.816;2022-12-24T04:12:06;3.47;;;3.03;;
64887;SDS011;51386;53.082;8.816;2022-12-24T04:14:33;3.50;;;3.20;;
64887;SDS011;51386;53.082;8.816;2022-12-24T04:17:00;3.50;;;3.20;;
64887;SDS011;51386;53.082;8.816;2022-12-24T04:19:27;3.07;;;2.80;;
64887;SDS011;51386;53.082;8.816;2022-12-24T04:21:54;4.00;;;3.70;;
64887;SDS011;51386;53.082;8.816;2022-12-24T04:24:22;4.23;;;3.40;;
64887;SDS011;51386;53.082;8.816;2022-12-24T04:26:49;3.93;;;3.60;;
64887;SDS011;51386;53.082;8.816;2022-12-24T04:29:16;3.80;;;3.30;;
64887;SDS011;51386;53.082;8.816;2022-12-24T04:31:43;4.10;;;3.53;;
64887;SDS011;51386;53.082;8.816;2022-12-24T04:34:10;4.50;;;3.40;;
64887;SDS011;51386;53.082;8.816;2022-12-24T04:36:37;3.80;;;3.50;;
64887;SDS011;51386;53.082;8.816;2022-12-24T04:39:04;4.07;;;3.67;;
64887;SDS011;51386;53.082;8.816;2022-12-24T04:41:32;4.37;;;3.97;;
64887;SDS011;51386;53.082;8.816;2022-12-24T04:43:59;3.70;;;3.40;;
64887;SDS011;51386;53.082;8.816;2022-12-24T04:46:27;4.73;;;4.23;;
64887;SDS011;51386;53.082;8.816;2022-12-24T04:48:57;4.27;;;3.87;;
64887;SDS011;51386;53.082;8.816;2022-12-24T04:51:25;3.87;;;3.53;;
64887;SDS011;51386;53.082;8.816;2022-12-24T04:53:54;4.30;;;4.00;;
64887;SDS011;51386;53.082;8.816;2022-12-24T04:56:23;7.47;;;6.23;;
64887;SDS011;51386;53.082;8.816;2022-12-24T04:58:53;7.40;;;6.30;;
64887;SDS011;51386;53.082;8.816;2022-12-24T05:01:22;6.33;;;5.47;;
64887;SDS011;51386;53.082;8.816;2022-12-24T05:03:52;5.17;;;4.70;;
64887;SDS011;51386;53.082;8.816;2022-12-24T05:06:21;6.40;;;5.77;;
64887;SDS011;51386;53.082;8.816;2022-12-24T05:08:52;7.63;;;6.50;;
64887;SDS011;51386;53.082;8.816;2022-12-24T05:11:20;7.53;;;6.83;;
64887;SDS011;51386;53.082;8.816;2022-12-24T05:13:48;9.20;;;8.07;;
64887;SDS011;51386;53.082;8.816;2022-12-24T05:16:17;9.10;;;8.20;;
64887;SDS011;51386;53.082;8.816;2022-12-24T05:18:47;10.53;;;9.43;;
64887;SDS011;51386;53.082;8.816;2022-12-24T05:21:15;10.20;;;9.10;;
64887;SDS011;51386;53.082;8.816;2022-12-24T05:23:45;13.33;;;9.73;;
64887;SDS011;51386;53.082;8.816;2022-12-24T05:26:31;11.50;;;9.77;;
64887;SDS011;51386;53.082;8.816;2022-12-24T05:29:02;11.80;;;10.53;;
64887;SDS011;51386;53.082;8.816;2022-12-24T05:31:32;10.60;;;9.50;;
64887;SDS011;51386;53.082;8.816;2022-12-24T05:33:59;10.57;;;9.47;;
64887;SDS011;51386;53.082;8.816;2022-12-24T05:36:28;12.30;;;9.60;;
64887;SDS011;51386;53.082;8.816;2022-12-24T05:38:55;11.10;;;9.87;;
64887;SDS011;51386;53.082;8.816;2022-12-24T05:41:23;12.83;;;10.90;;
64887;SDS011;51386;53.082;8.816;2022-12-24T05:43:51;14.23;;;10.67;;
64887;SDS011;51386;53.082;8.816;2022-12-24T05:46:18;11.93;;;10.13;;
64887;SDS011;51386;53.082;8.816;2022-12-24T05:48:50;12.93;;;9.97;;
64887;SDS011;51386;53.082;8.816;2022-12-24T05:51:19;16.80;;;11.17;;
64887;SDS011;51386;53.082;8.816;2022-12-24T05:53:47;11.80;;;10.23;;
64887;SDS011;51386;53.082;8.816;2022-12-24T05:56:17;12.23;;;10.63;;
64887;SDS011;51386;53.082;8.816;2022-12-24T05:58:46;14.63;;;11.10;;
64887;SDS011;51386;53.082;8.816;2022-12-24T06:01:13;14.13;;;11.37;;
64887;SDS011;51386;53.082;8.816;2022-12-24T06:03:41;16.60;;;10.27;;
64887;SDS011;51386;53.082;8.816;2022-12-24T06:06:10;11.30;;;9.20;;
64887;SDS011;51386;53.082;8.816;2022-12-24T06:08:40;13.63;;;10.17;;
64887;SDS011;51386;53.082;8.816;2022-12-24T06:11:08;11.50;;;9.10;;
64887;SDS011;51386;53.082;8.816;2022-12-24T06:13:38;10.83;;;8.20;;
64887;SDS011;51386;53.082;8.816;2022-12-24T06:16:07;12.67;;;8.10;;
64887;SDS011;51386;53.082;8.816;2022-12-24T06:18:37;9.03;;;7.77;;
64887;SDS011;51386;53.082;8.816;2022-12-24T06:21:04;10.07;;;7.73;;
64887;SDS011;51386;53.082;8.816;2022-12-24T06:23:34;8.67;;;6.57;;
64887;SDS011;51386;53.082;8.816;2022-12-24T06:26:05;10.80;;;6.80;;
64887;SDS011;51386;53.082;8.816;2022-12-24T06:28:34;8.93;;;5.83;;
64887;SDS011;51386;53.082;8.816;2022-12-24T06:31:03;9.37;;;6.13;;
64887;SDS011;51386;53.082;8.816;2022-12-24T06:33:32;12.13;;;5.77;;
64887;SDS011;51386;53.082;8.816;2022-12-24T06:35:59;11.03;;;6.47;;
64887;SDS011;51386;53.082;8.816;2022-12-24T06:38:28;13.97;;;5.67;;
64887;SDS011;51386;53.082;8.816;2022-12-24T06:40:57;11.30;;;5.57;;
64887;SDS011;51386;53.082;8.816;2022-12-24T06:43:25;9.17;;;4.67;;
64887;SDS011;51386;53.082;8.816;2022-12-24T06:45:52;10.20;;;5.23;;
64887;SDS011;51386;53.082;8.816;2022-12-24T06:48:19;10.97;;;5.03;;
64887;SDS011;51386;53.082;8.816;2022-12-24T06:50:45;15.23;;;4.97;;
64887;SDS011;51386;53.082;8.816;2022-12-24T06:53:12;13.00;;;5.00;;
64887;SDS011;51386;53.082;8.816;2022-12-24T06:55:39;13.97;;;5.27;;
64887;SDS011;51386;53.082;8.816;2022-12-24T06:58:08;10.83;;;4.50;;
64887;SDS011;51386;53.082;8.816;2022-12-24T07:00:35;10.60;;;4.93;;
64887;SDS011;51386;53.082;8.816;2022-12-24T07:03:02;12.67;;;5.30;;
64887;SDS011;51386;53.082;8.816;2022-12-24T07:05:29;14.80;;;5.07;;
64887;SDS011;51386;53.082;8.816;2022-12-24T07:07:56;14.53;;;5.07;;
64887;SDS011;51386;53.082;8.816;2022-12-24T07:10:23;19.37;;;5.17;;
64887;SDS011;51386;53.082;8.816;2022-12-24T07:12:50;18.67;;;4.67;;
64887;SDS011;51386;53.082;8.816;2022-12-24T07:15:18;14.73;;;4.60;;
64887;SDS011;51386;53.082;8.816;2022-12-24T07:17:45;13.43;;;4.30;;
64887;SDS011;51386;53.082;8.816;2022-12-24T07:20:13;16.67;;;4.30;;
64887;SDS011;51386;53.082;8.816;2022-12-24T07:22:40;15.00;;;4.33;;
64887;SDS011;51386;53.082;8.816;2022-12-24T07:25:08;13.70;;;4.60;;
64887;SDS011;51386;53.082;8.816;2022-12-24T07:27:36;13.83;;;4.17;;
64887;SDS011;51386;53.082;8.816;2022-12-24T07:30:04;16.57;;;4.90;;
64887;SDS011;51386;53.082;8.816;2022-12-24T07:32:35;13.67;;;4.40;;
64887;SDS011;51386;53.082;8.816;2022-12-24T07:35:02;18.10;;;4.60;;
64887;SDS011;51386;53.082;8.816;2022-12-24T07:37:29;15.67;;;4.00;;
64887;SDS011;51386;53.082;8.816;2022-12-24T07:39:56;14.07;;;4.20;;
64887;SDS011;51386;53.082;8.816;2022-12-24T07:42:24;14.73;;;4.63;;
64887;SDS011;51386;53.082;8.816;2022-12-24T07:44:51;18.23;;;4.67;;
64887;SDS011;51386;53.082;8.816;2022-12-24T07:47:18;19.53;;;4.67;;
64887;SDS011;51386;53.082;8.816;2022-12-24T07:49:46;12.10;;;3.60;;
64887;SDS011;51386;53.082;8.816;2022-12-24T07:52:13;14.90;;;4.37;;
64887;SDS011;51386;53.082;8.816;2022-12-24T07:54:41;11.53;;;3.90;;
64887;SDS011;51386;53.082;8.816;2022-12-24T07:57:08;9.87;;;4.10;;
64887;SDS011;51386;53.082;8.816;2022-12-24T07:59:35;14.80;;;4.60;;
64887;SDS011;51386;53.082;8.816;2022-12-24T08:02:02;18.13;;;4.30;;
64887;SDS011;51386;53.082;8.816;2022-12-24T08:04:29;13.00;;;4.47;;
64887;SDS011;51386;53.082;8.816;2022-12-24T08:06:58;16.03;;;4.47;;
64887;SDS011;51386;53.082;8.816;2022-12-24T08:09:25;13.00;;;4.27;;
64887;SDS011;51386;53.082;8.816;2022-12-24T08:11:52;15.90;;;4.00;;
64887;SDS011;51386;53.082;8.816;2022-12-24T08:14:19;17.87;;;4.30;;
64887;SDS011;51386;53.082;8.816;2022-12-24T08:16:46;18.43;;;4.97;;
64887;SDS011;51386;53.082;8.816;2022-12-24T08:19:14;15.67;;;4.60;;
64887;SDS011;51386;53.082;8.816;2022-12-24T08:21:41;15.53;;;4.40;;
64887;SDS011;51386;53.082;8.816;2022-12-24T08:24:10;13.23;;;4.63;;
64887;SDS011;51386;53.082;8.816;2022-12-24T08:26:36;15.20;;;4.37;;
64887;SDS011;51386;53.082;8.816;2022-12-24T08:29:04;16.30;;;4.90;;
64887;SDS011;51386;53.082;8.816;2022-12-24T08:31:32;17.87;;;5.40;;
64887;SDS011;51386;53.082;8.816;2022-12-24T08:34:02;17.97;;;5.73;;
64887;SDS011;51386;53.082;8.816;2022-12-24T08:36:29;17.43;;;4.87;;
64887;SDS011;51386;53.082;8.816;2022-12-24T08:38:56;19.47;;;4.87;;
64887;SDS011;51386;53.082;8.816;2022-12-24T08:41:24;20.37;;;5.03;;
64887;SDS011;51386;53.082;8.816;2022-12-24T08:43:51;14.27;;;4.20;;
64887;SDS011;51386;53.082;8.816;2022-12-24T08:46:18;17.73;;;5.00;;
64887;SDS011;51386;53.082;8.816;2022-12-24T08:48:45;14.87;;;5.90;;
64887;SDS011;51386;53.082;8.816;2022-12-24T08:51:12;15.80;;;4.97;;
64887;SDS011;51386;53.082;8.816;2022-12-24T08:53:39;21.37;;;6.20;;
64887;SDS011;51386;53.082;8.816;2022-12-24T08:56:07;22.20;;;6.17;;
64887;SDS011;51386;53.082;8.816;2022-12-24T08:58:36;16.63;;;5.37;;
64887;SDS011;51386;53.082;8.816;2022-12-24T09:01:09;17.80;;;5.47;;
64887;SDS011;51386;53.082;8.816;2022-12-24T09:03:39;14.33;;;5.43;;
64887;SDS011;51386;53.082;8.816;2022-12-24T09:06:07;21.87;;;6.60;;
64887;SDS011;51386;53.082;8.816;2022-12-24T09:08:35;16.87;;;6.20;;
64887;SDS011;51386;53.082;8.816;2022-12-24T09:11:03;19.37;;;5.80;;
64887;SDS011;51386;53.082;8.816;2022-12-24T09:13:32;24.23;;;7.53;;
64887;SDS011;51386;53.082;8.816;2022-12-24T09:16:00;17.23;;;6.13;;
64887;SDS011;51386;53.082;8.816;2022-12-24T09:18:29;22.90;;;6.57;;
64887;SDS011;51386;53.082;8.816;2022-12-24T09:20:59;22.77;;;6.13;;
64887;SDS011;51386;53.082;8.816;2022-12-24T09:23:28;18.20;;;6.67;;
64887;SDS011;51386;53.082;8.816;2022-12-24T09:25:56;24.50;;;7.10;;
64887;SDS011;51386;53.082;8.816;2022-12-24T09:28:23;17.20;;;6.17;;
64887;SDS011;51386;53.082;8.816;2022-12-24T09:30:54;20.90;;;6.23;;
64887;SDS011;51386;53.082;8.816;2022-12-24T09:33:24;19.03;;;6.37;;
64887;SDS011;51386;53.082;8.816;2022-12-24T09:35:52;18.63;;;7.47;;
64887;SDS011;51386;53.082;8.816;2022-12-24T09:38:20;24.03;;;8.50;;
64887;SDS011;51386;53.082;8.816;2022-12-24T09:40:48;20.67;;;6.97;;
64887;SDS011;51386;53.082;8.816;2022-12-24T09:43:17;18.23;;;7.13;;
64887;SDS011;51386;53.082;8.816;2022-12-24T09:45:49;17.90;;;7.00;;
64887;SDS011;51386;53.082;8.816;2022-12-24T09:48:33;22.53;;;7.80;;
64887;SDS011;51386;53.082;8.816;2022-12-24T09:51:05;19.63;;;7.13;;
64887;SDS011;51386;53.082;8.816;2022-12-24T09:53:36;20.33;;;6.80;;
64887;SDS011;51386;53.082;8.816;2022-12-24T09:56:10;23.77;;;6.93;;
64887;SDS011;51386;53.082;8.816;2022-12-24T09:58:43;18.97;;;6.40;;
64887;SDS011;51386;53.082;8.816;2022-12-24T10:01:14;13.60;;;5.30;;
64887;SDS011;51386;53.082;8.816;2022-12-24T10:03:44;18.10;;;6.63;;
64887;SDS011;51386;53.082;8.816;2022-12-24T10:06:13;18.67;;;6.27;;
64887;SDS011;51386;53.082;8.816;2022-12-24T10:09:00;13.43;;;5.00;;
64887;SDS011;51386;53.082;8.816;2022-12-24T10:11:42;18.70;;;6.13;;
64887;SDS011;51386;53.082;8.816;2022-12-24T10:14:22;23.87;;;6.53;;
64887;SDS011;51386;53.082;8.816;2022-12-24T10:17:08;21.40;;;5.87;;
64887;SDS011;51386;53.082;8.816;2022-12-24T10:19:56;19.23;;;6.10;;
64887;SDS011;51386;53.082;8.816;2022-12-24T10:22:39;19.40;;;5.93;;
64887;SDS011;51386;53.082;8.816;2022-12-24T10:25:25;19.13;;;5.23;;
64887;SDS011;51386;53.082;8.816;2022-12-24T10:27:59;18.77;;;6.33;;
64887;SDS011;51386;53.082;8.816;2022-12-24T10:30:29;17.27;;;5.70;;
64887;SDS011;51386;53.082;8.816;2022-12-24T10:32:55;14.30;;;4.97;;
64887;SDS011;51386;53.082;8.816;2022-12-24T10:35:24;17.07;;;4.97;;
64887;SDS011;51386;53.082;8.816;2022-12-24T10:37:57;18.53;;;5.80;;
64887;SDS011;51386;53.082;8.816;2022-12-24T10:40:26;15.70;;;5.80;;
64887;SDS011;51386;53.082;8.816;2022-12-24T10:43:01;16.83;;;5.13;;
64887;SDS011;51386;53.082;8.816;2022-12-24T10:45:39;21.97;;;6.23;;
64887;SDS011;51386;53.082;8.816;2022-12-24T10:48:13;16.60;;;5.23;;
64887;SDS011;51386;53.082;8.816;2022-12-24T10:50:53;19.77;;;5.40;;
64887;SDS011;51386;53.082;8.816;2022-12-24T10:53:31;19.83;;;5.60;;
64887;SDS011;51386;53.082;8.816;2022-12-24T10:56:07;17.17;;;5.37;;
64887;SDS011;51386;53.082;8.816;2022-12-24T10:58:41;13.80;;;5.03;;
64887;SDS011;51386;53.082;8.816;2022-12-24T11:01:10;23.87;;;5.63;;
64887;SDS011;51386;53.082;8.816;2022-12-24T11:03:38;18.17;;;5.53;;
64887;SDS011;51386;53.082;8.816;2022-12-24T11:06:09;22.70;;;5.73;;
64887;SDS011;51386;53.082;8.816;2022-12-24T11:08:39;16.70;;;5.23;;
64887;SDS011;51386;53.082;8.816;2022-12-24T11:11:10;17.33;;;5.77;;
64887;SDS011;51386;53.082;8.816;2022-12-24T11:13:42;14.50;;;4.40;;
64887;SDS011;51386;53.082;8.816;2022-12-24T11:16:19;17.90;;;5.70;;
64887;SDS011;51386;53.082;8.816;2022-12-24T11:18:52;17.27;;;5.60;;
64887;SDS011;51386;53.082;8.816;2022-12-24T11:21:24;14.37;;;4.83;;
64887;SDS011;51386;53.082;8.816;2022-12-24T11:23:55;17.20;;;4.93;;
64887;SDS011;51386;53.082;8.816;2022-12-24T11:26:26;17.20;;;5.70;;
64887;SDS011;51386;53.082;8.816;2022-12-24T11:29:03;16.33;;;5.77;;
64887;SDS011;51386;53.082;8.816;2022-12-24T11:31:42;16.13;;;5.30;;
64887;SDS011;51386;53.082;8.816;2022-12-24T11:34:20;15.53;;;5.00;;
64887;SDS011;51386;53.082;8.816;2022-12-24T11:36:53;15.13;;;4.93;;
64887;SDS011;51386;53.082;8.816;2022-12-24T11:39:40;13.30;;;5.67;;
64887;SDS011;51386;53.082;8.816;2022-12-24T11:42:21;17.60;;;5.50;;
64887;SDS011;51386;53.082;8.816;2022-12-24T11:44:56;14.90;;;5.97;;
64887;SDS011;51386;53.082;8.816;2022-12-24T11:47:31;18.73;;;5.53;;
64887;SDS011;51386;53.082;8.816;2022-12-24T11:50:20;18.23;;;4.83;;
64887;SDS011;51386;53.082;8.816;2022-12-24T11:52:53;17.33;;;5.60;;
64887;SDS011;51386;53.082;8.816;2022-12-24T11:55:35;21.63;;;5.87;;
64887;SDS011;51386;53.082;8.816;2022-12-24T11:58:15;20.43;;;6.03;;
64887;SDS011;51386;53.082;8.816;2022-12-24T12:00:51;22.93;;;6.23;;
64887;SDS011;51386;53.082;8.816;2022-12-24T12:03:29;18.17;;;5.40;;
64887;SDS011;51386;53.082;8.816;2022-12-24T12:06:05;19.80;;;6.40;;
64887;SDS011;51386;53.082;8.816;2022-12-24T12:08:51;17.10;;;5.80;;
64887;SDS011;51386;53.082;8.816;2022-12-24T12:11:24;20.93;;;5.63;;
64887;SDS011;51386;53.082;8.816;2022-12-24T12:13:54;18.80;;;6.27;;
64887;SDS011;51386;53.082;8.816;2022-12-24T12:16:26;15.47;;;5.83;;
64887;SDS011;51386;53.082;8.816;2022-12-24T12:19:20;17.10;;;5.83;;
64887;SDS011;51386;53.082;8.816;2022-12-24T12:21:50;20.17;;;5.67;;
64887;SDS011;51386;53.082;8.816;2022-12-24T12:24:19;19.13;;;6.20;;
64887;SDS011;51386;53.082;8.816;2022-12-24T12:27:00;17.07;;;6.20;;
64887;SDS011;51386;53.082;8.816;2022-12-24T12:29:39;22.40;;;6.47;;
64887;SDS011;51386;53.082;8.816;2022-12-24T12:32:14;17.17;;;6.17;;
64887;SDS011;51386;53.082;8.816;2022-12-24T12:34:54;18.13;;;6.07;;
64887;SDS011;51386;53.082;8.816;2022-12-24T12:37:30;17.23;;;5.33;;
64887;SDS011;51386;53.082;8.816;2022-12-24T12:40:10;19.80;;;6.20;;
64887;SDS011;51386;53.082;8.816;2022-12-24T12:42:40;15.07;;;6.33;;
64887;SDS011;51386;53.082;8.816;2022-12-24T12:45:29;17.00;;;6.23;;
64887;SDS011;51386;53.082;8.816;2022-12-24T12:48:12;16.93;;;6.40;;
64887;SDS011;51386;53.082;8.816;2022-12-24T12:51:01;20.33;;;6.57;;
64887;SDS011;51386;53.082;8.816;2022-12-24T12:53:40;24.20;;;6.20;;
64887;SDS011;51386;53.082;8.816;2022-12-24T12:56:27;14.97;;;6.03;;
64887;SDS011;51386;53.082;8.816;2022-12-24T12:58:59;17.83;;;6.40;;
64887;SDS011;51386;53.082;8.816;2022-12-24T13:01:36;15.37;;;5.30;;
64887;SDS011;51386;53.082;8.816;2022-12-24T13:07:42;18.37;;;5.93;;
64887;SDS011;51386;53.082;8.816;2022-12-24T13:10:45;14.60;;;5.37;;
64887;SDS011;51386;53.082;8.816;2022-12-24T13:13:34;17.80;;;5.60;;
64887;SDS011;51386;53.082;8.816;2022-12-24T13:16:23;15.37;;;5.90;;
64887;SDS011;51386;53.082;8.816;2022-12-24T13:19:15;14.77;;;4.60;;
64887;SDS011;51386;53.082;8.816;2022-12-24T13:22:13;13.60;;;5.30;;
64887;SDS011;51386;53.082;8.816;2022-12-24T13:24:46;10.90;;;4.93;;
64887;SDS011;51386;53.082;8.816;2022-12-24T13:27:18;10.50;;;4.60;;
64887;SDS011;51386;53.082;8.816;2022-12-24T13:29:52;11.90;;;4.30;;
64887;SDS011;51386;53.082;8.816;2022-12-24T13:35:33;10.67;;;4.40;;
64887;SDS011;51386;53.082;8.816;2022-12-24T13:44:24;15.03;;;4.43;;
64887;SDS011;51386;53.082;8.816;2022-12-24T13:47:03;11.50;;;3.93;;
64887;SDS011;51386;53.082;8.816;2022-12-24T13:49:53;11.53;;;4.57;;
64887;SDS011;51386;53.082;8.816;2022-12-24T13:52:27;12.20;;;4.50;;
64887;SDS011;51386;53.082;8.816;2022-12-24T13:55:00;13.67;;;3.90;;
64887;SDS011;51386;53.082;8.816;2022-12-24T13:57:40;13.00;;;4.73;;
64887;SDS011;51386;53.082;8.816;2022-12-24T14:00:27;11.07;;;3.77;;
64887;SDS011;51386;53.082;8.816;2022-12-24T14:03:02;12.50;;;4.00;;
64887;SDS011;51386;53.082;8.816;2022-12-24T14:05:57;14.80;;;5.00;;
64887;SDS011;51386;53.082;8.816;2022-12-24T14:08:29;12.00;;;3.80;;
64887;SDS011;51386;53.082;8.816;2022-12-24T14:11:07;12.50;;;4.00;;
64887;SDS011;51386;53.082;8.816;2022-12-24T14:13:50;11.17;;;3.60;;
64887;SDS011;51386;53.082;8.816;2022-12-24T14:16:40;12.17;;;4.00;;
64887;SDS011;51386;53.082;8.816;2022-12-24T14:19:15;13.43;;;3.23;;
64887;SDS011;51386;53.082;8.816;2022-12-24T14:21:50;9.27;;;3.90;;
64887;SDS011;51386;53.082;8.816;2022-12-24T14:24:24;12.03;;;4.43;;
64887;SDS011;51386;53.082;8.816;2022-12-24T14:26:56;8.13;;;3.90;;
64887;SDS011;51386;53.082;8.816;2022-12-24T14:29:32;13.20;;;3.53;;
64887;SDS011;51386;53.082;8.816;2022-12-24T14:32:11;13.77;;;4.00;;
64887;SDS011;51386;53.082;8.816;2022-12-24T14:34:42;12.20;;;3.50;;
64887;SDS011;51386;53.082;8.816;2022-12-24T14:37:10;11.40;;;3.20;;
64887;SDS011;51386;53.082;8.816;2022-12-24T14:39:40;14.03;;;3.83;;
64887;SDS011;51386;53.082;8.816;2022-12-24T14:42:20;12.50;;;3.33;;
64887;SDS011;51386;53.082;8.816;2022-12-24T14:45:03;11.23;;;3.73;;
64887;SDS011;51386;53.082;8.816;2022-12-24T14:47:44;14.77;;;4.20;;
64887;SDS011;51386;53.082;8.816;2022-12-24T14:50:33;14.97;;;3.90;;
64887;SDS011;51386;53.082;8.816;2022-12-24T14:53:15;13.20;;;4.10;;
64887;SDS011;51386;53.082;8.816;2022-12-24T14:56:05;12.70;;;3.70;;
64887;SDS011;51386;53.082;8.816;2022-12-24T14:58:40;15.77;;;4.53;;
64887;SDS011;51386;53.082;8.816;2022-12-24T15:01:20;12.40;;;4.30;;
64887;SDS011;51386;53.082;8.816;2022-12-24T15:04:00;11.53;;;3.97;;
64887;SDS011;51386;53.082;8.816;2022-12-24T15:06:32;13.07;;;4.43;;
64887;SDS011;51386;53.082;8.816;2022-12-24T15:09:03;13.73;;;4.70;;
64887;SDS011;51386;53.082;8.816;2022-12-24T15:11:31;14.10;;;4.77;;
64887;SDS011;51386;53.082;8.816;2022-12-24T15:13:58;11.53;;;3.93;;
64887;SDS011;51386;53.082;8.816;2022-12-24T15:16:27;13.57;;;4.17;;
64887;SDS011;51386;53.082;8.816;2022-12-24T15:19:00;10.60;;;4.23;;
64887;SDS011;51386;53.082;8.816;2022-12-24T15:21:33;12.97;;;4.53;;
64887;SDS011;51386;53.082;8.816;2022-12-24T15:24:08;14.13;;;4.03;;
64887;SDS011;51386;53.082;8.816;2022-12-24T15:26:51;15.13;;;4.80;;